Time,TemperatureF,DewpointF,PressureIn,WindDirection,WindDirectionDegrees,WindSpeedMPH,WindSpeedGustMPH,Humidity,HourlyPrecipIn,Conditions,Clouds,dailyrainin,SoftwareType,DateUTC
2013-09-13 07:41:00,51.1,49.4,29.83,North,0,0.0,0.0,94,0.00,,---,0.00,VWS V14.00,2013-09-13 12:41:00,
2013-09-13 07:42:00,50.7,49.0,29.84,East,82,0.0,0.0,94,0.00,,---,0.00,VWS V14.00,2013-09-13 12:42:00,
2013-09-13 07:46:00,51.6,49.9,29.85,East,82,0.0,0.0,94,0.00,,---,0.00,VWS V14.00,2013-09-13 12:46:00,
2013-09-13 07:47:00,51.6,49.9,29.85,East,82,0.0,0.0,94,0.00,,---,0.00,VWS V14.00,2013-09-13 12:47:00,
2013-09-13 07:51:00,52.0,50.3,29.85,East,82,0.0,0.0,94,0.00,,---,0.00,VWS V14.00,2013-09-13 12:51:00,
2013-09-13 07:52:00,52.0,50.3,29.85,East,82,0.0,0.0,94,0.00,,---,0.00,VWS V14.00,2013-09-13 12:52:00,
2013-09-13 07:56:00,52.2,50.8,29.85,East,82,0.0,0.0,95,0.00,,---,0.00,VWS V14.00,2013-09-13 12:56:00,
2013-09-13 07:57:00,52.2,50.8,29.85,East,82,0.0,0.0,95,0.00,,---,0.00,VWS V14.00,2013-09-13 12:57:00,
2013-09-13 08:02:00,52.3,50.9,29.85,East,82,0.0,0.0,95,0.00,,---,0.00,VWS V14.00,2013-09-13 13:02:00,
2013-09-13 08:03:00,52.3,50.9,29.85,East,82,0.0,0.0,95,0.00,,---,0.00,VWS V14.00,2013-09-13 13:03:00,
2013-09-13 08:07:00,52.3,50.9,29.85,East,82,0.0,0.0,95,0.00,,---,0.00,VWS V14.00,2013-09-13 13:07:00,
2013-09-13 08:08:00,52.3,50.9,29.85,East,82,0.0,0.0,95,0.00,,---,0.00,VWS V14.00,2013-09-13 13:08:00,
2013-09-13 08:12:00,52.8,51.4,29.85,East,82,0.0,0.0,95,0.00,,---,0.00,VWS V14.00,2013-09-13 13:12:00,
2013-09-13 08:13:00,52.8,51.4,29.85,East,82,0.0,0.0,95,0.00,,---,0.00,VWS V14.00,2013-09-13 13:13:00,
2013-09-13 08:17:00,53.3,51.9,29.85,NE,40,0.0,0.0,95,0.00,,---,0.00,VWS V14.00,2013-09-13 13:17:00,
2013-09-13 08:18:00,53.6,52.2,29.85,WNW,299,0.0,0.0,95,0.00,,---,0.00,VWS V14.00,2013-09-13 13:18:00,
2013-09-13 08:19:00,53.6,52.2,29.85,WNW,299,0.0,0.0,95,0.00,,---,0.00,VWS V14.00,2013-09-13 13:19:00,
2013-09-13 08:22:00,54.2,52.8,29.85,WNW,299,0.0,0.0,95,0.00,,---,0.00,VWS V14.00,2013-09-13 13:22:00,
2013-09-13 08:24:00,54.4,53.0,29.85,WNW,299,0.0,0.0,95,0.00,,---,0.00,VWS V14.00,2013-09-13 13:24:00,
2013-09-13 08:27:00,55.0,53.6,29.85,WNW,299,0.0,0.0,95,0.00,,---,0.00,VWS V14.00,2013-09-13 13:27:00,
2013-09-13 08:28:00,55.0,53.6,29.85,WNW,299,0.0,0.0,95,0.00,,---,0.00,VWS V14.00,2013-09-13 13:28:00,
2013-09-13 08:29:00,55.1,53.7,29.84,WNW,299,0.0,0.0,95,0.00,,---,0.00,VWS V14.00,2013-09-13 13:29:00,
2013-09-13 08:30:00,55.4,54.0,29.84,WNW,299,0.0,0.0,95,0.00,,---,0.00,VWS V14.00,2013-09-13 13:30:00,
2013-09-13 08:32:00,55.4,54.0,29.84,WNW,299,0.0,0.0,95,0.00,,---,0.00,VWS V14.00,2013-09-13 13:32:00,
2013-09-13 08:33:00,55.6,54.2,29.84,WNW,299,0.0,0.0,95,0.00,,---,0.00,VWS V14.00,2013-09-13 13:33:00,
2013-09-13 08:35:00,55.7,54.3,29.84,WNW,299,0.0,0.0,95,0.00,,---,0.00,VWS V14.00,2013-09-13 13:35:00,
2013-09-13 08:37:00,55.7,54.3,29.84,WNW,299,0.0,0.0,95,0.00,,---,0.00,VWS V14.00,2013-09-13 13:37:00,
2013-09-13 08:38:00,56.0,54.6,29.84,WNW,299,0.0,0.0,95,0.00,,---,0.00,VWS V14.00,2013-09-13 13:38:00,
2013-09-13 08:40:00,56.2,54.8,29.84,WNW,299,0.0,0.0,95,0.00,,---,0.00,VWS V14.00,2013-09-13 13:40:00,
2013-09-13 08:41:00,56.3,54.9,29.84,WNW,299,0.0,0.0,95,0.00,,---,0.00,VWS V14.00,2013-09-13 13:41:00,
2013-09-13 08:42:00,56.5,55.1,29.84,WNW,299,0.0,0.0,95,0.00,,---,0.00,VWS V14.00,2013-09-13 13:42:00,
2013-09-13 08:43:00,56.5,55.1,29.84,WNW,299,0.0,0.0,95,0.00,,---,0.00,VWS V14.00,2013-09-13 13:43:00,
2013-09-13 08:45:00,56.7,55.3,29.83,WNW,299,0.0,0.0,95,0.00,,---,0.00,VWS V14.00,2013-09-13 13:45:00,
2013-09-13 08:46:00,56.7,55.3,29.83,WNW,299,0.0,0.0,95,0.00,,---,0.00,VWS V14.00,2013-09-13 13:46:00,
2013-09-13 08:47:00,56.7,55.3,29.83,WNW,299,0.0,0.0,95,0.00,,---,0.00,VWS V14.00,2013-09-13 13:47:00,
2013-09-13 08:48:00,56.9,55.5,29.83,WNW,299,0.0,0.0,95,0.00,,---,0.00,VWS V14.00,2013-09-13 13:48:00,
2013-09-13 08:51:00,57.2,55.8,29.83,WNW,299,0.0,0.0,95,0.00,,---,0.00,VWS V14.00,2013-09-13 13:51:00,
2013-09-13 08:52:00,57.3,55.9,29.83,WNW,299,0.0,0.0,95,0.00,,---,0.00,VWS V14.00,2013-09-13 13:52:00,
2013-09-13 08:53:00,57.5,56.1,29.83,WNW,299,0.0,0.0,95,0.00,,---,0.00,VWS V14.00,2013-09-13 13:53:00,
2013-09-13 08:54:00,57.8,56.4,29.83,WNW,299,0.0,0.0,95,0.00,,---,0.00,VWS V14.00,2013-09-13 13:54:00,
2013-09-13 08:57:00,58.3,57.2,29.83,WNW,299,0.0,0.0,96,0.00,,---,0.00,VWS V14.00,2013-09-13 13:57:00,
2013-09-13 08:58:00,58.4,57.3,29.83,WNW,299,0.0,0.0,96,0.00,,---,0.00,VWS V14.00,2013-09-13 13:58:00,
2013-09-13 08:59:00,58.6,57.5,29.81,WNW,299,0.0,0.0,96,0.00,,---,0.00,VWS V14.00,2013-09-13 13:59:00,
2013-09-13 09:00:00,58.7,57.6,29.81,WNW,299,0.0,0.0,96,0.00,,---,0.00,VWS V14.00,2013-09-13 14:00:00,
2013-09-13 09:03:00,59.5,58.4,29.81,WNW,299,0.0,0.0,96,0.00,,---,0.00,VWS V14.00,2013-09-13 14:03:00,
2013-09-13 09:04:00,59.6,58.5,29.81,WNW,299,0.0,0.0,96,0.00,,---,0.00,VWS V14.00,2013-09-13 14:04:00,
2013-09-13 09:06:00,59.5,58.4,29.81,WNW,299,0.0,0.0,96,0.00,,---,0.00,VWS V14.00,2013-09-13 14:06:00,
2013-09-13 09:08:00,59.5,58.4,29.81,WNW,299,0.0,0.0,96,0.00,,---,0.00,VWS V14.00,2013-09-13 14:08:00,
2013-09-13 09:11:00,59.9,58.8,29.81,WNW,299,0.0,0.0,96,0.00,,---,0.00,VWS V14.00,2013-09-13 14:11:00,
2013-09-13 09:12:00,60.1,59.0,29.81,WNW,299,0.0,0.0,96,0.00,,---,0.00,VWS V14.00,2013-09-13 14:12:00,
2013-09-13 09:13:00,60.1,59.0,29.81,WNW,299,0.0,0.0,96,0.00,,---,0.00,VWS V14.00,2013-09-13 14:13:00,
2013-09-13 09:16:00,60.2,59.1,29.83,WNW,299,0.0,0.0,96,0.00,,---,0.00,VWS V14.00,2013-09-13 14:16:00,
2013-09-13 09:18:00,60.7,59.6,29.83,WNW,299,0.0,0.0,96,0.00,,---,0.00,VWS V14.00,2013-09-13 14:18:00,
2013-09-13 09:19:00,60.7,59.6,29.83,WNW,299,0.0,0.0,96,0.00,,---,0.00,VWS V14.00,2013-09-13 14:19:00,
2013-09-13 09:21:00,61.0,59.9,29.83,WNW,299,0.0,0.0,96,0.00,,---,0.00,VWS V14.00,2013-09-13 14:21:00,
2013-09-13 09:22:00,61.0,59.9,29.83,WNW,299,0.0,0.0,96,0.00,,---,0.00,VWS V14.00,2013-09-13 14:22:00,
2013-09-13 09:24:00,61.5,60.3,29.83,WNW,299,0.0,0.0,96,0.00,,---,0.00,VWS V14.00,2013-09-13 14:24:00,
2013-09-13 09:25:00,61.8,60.7,29.83,WNW,299,0.0,0.0,96,0.00,,---,0.00,VWS V14.00,2013-09-13 14:25:00,
2013-09-13 09:27:00,62.1,61.0,29.83,WNW,299,0.0,0.0,96,0.00,,---,0.00,VWS V14.00,2013-09-13 14:27:00,
2013-09-13 09:29:00,62.1,61.0,29.80,WNW,299,0.0,0.0,96,0.00,,---,0.00,VWS V14.00,2013-09-13 14:29:00,
2013-09-13 09:30:00,62.3,61.2,29.80,WNW,299,0.0,0.0,96,0.00,,---,0.00,VWS V14.00,2013-09-13 14:30:00,
2013-09-13 09:31:00,62.4,61.2,29.80,WNW,299,0.0,0.0,96,0.00,,---,0.00,VWS V14.00,2013-09-13 14:31:00,
2013-09-13 09:32:00,62.4,61.2,29.80,WNW,299,0.0,0.0,96,0.00,,---,0.00,VWS V14.00,2013-09-13 14:32:00,
2013-09-13 09:34:00,62.4,61.2,29.80,WNW,299,0.0,0.0,96,0.00,,---,0.00,VWS V14.00,2013-09-13 14:34:00,
2013-09-13 09:35:00,62.7,61.2,29.80,WNW,299,0.0,0.0,95,0.00,,---,0.00,VWS V14.00,2013-09-13 14:35:00,
2013-09-13 09:36:00,62.7,61.2,29.80,WNW,299,0.0,0.0,95,0.00,,---,0.00,VWS V14.00,2013-09-13 14:36:00,
2013-09-13 09:37:00,62.7,61.2,29.80,WNW,299,0.0,0.0,95,0.00,,---,0.00,VWS V14.00,2013-09-13 14:37:00,
2013-09-13 09:39:00,63.2,61.2,29.80,WNW,299,0.0,0.0,93,0.00,,---,0.00,VWS V14.00,2013-09-13 14:39:00,
2013-09-13 09:40:00,63.5,61.4,29.80,WNW,299,0.0,0.0,93,0.00,,---,0.00,VWS V14.00,2013-09-13 14:40:00,
2013-09-13 09:42:00,64.5,62.1,29.80,WNW,299,0.0,0.0,92,0.00,,---,0.00,VWS V14.00,2013-09-13 14:42:00,
2013-09-13 13:28:00,74.7,54.3,29.77,East,90,2.0,12.0,49,0.00,,---,0.00,VWS V14.00,2013-09-13 18:28:00,
2013-09-13 13:29:00,77.6,53.4,29.75,ESE,117,9.0,10.0,43,0.00,,---,0.00,VWS V14.00,2013-09-13 18:29:00,
2013-09-13 13:33:00,76.3,53.4,29.73,East,88,0.0,12.0,45,0.00,,---,0.00,VWS V14.00,2013-09-13 18:33:00,
2013-09-13 13:34:00,76.3,53.4,29.73,East,86,0.0,12.0,45,0.00,,---,0.00,VWS V14.00,2013-09-13 18:34:00,
2013-09-13 13:38:00,75.3,53.1,29.73,East,80,0.0,12.0,46,0.00,,---,0.00,VWS V14.00,2013-09-13 18:38:00,
2013-09-13 13:39:00,75.4,53.2,29.73,East,80,0.0,12.0,46,0.00,,---,0.00,VWS V14.00,2013-09-13 18:39:00,
2013-09-13 13:40:00,75.4,53.8,29.73,East,80,0.0,12.0,47,0.00,,---,0.00,VWS V14.00,2013-09-13 18:40:00,
2013-09-13 13:43:00,76.1,52.6,29.73,ESE,113,4.0,12.0,44,0.00,,---,0.00,VWS V14.00,2013-09-13 18:43:00,
2013-09-13 13:44:00,76.1,51.4,29.74,ESE,102,5.0,12.0,42,0.00,,---,0.00,VWS V14.00,2013-09-13 18:44:00,
2013-09-13 13:45:00,76.3,52.2,29.74,ESE,123,0.0,12.0,43,0.00,,---,0.00,VWS V14.00,2013-09-13 18:45:00,
2013-09-13 13:49:00,76.3,52.2,29.74,NE,40,0.0,12.0,43,0.00,,---,0.00,VWS V14.00,2013-09-13 18:49:00,
2013-09-13 13:50:00,76.1,52.6,29.74,ENE,61,1.0,12.0,44,0.00,,---,0.00,VWS V14.00,2013-09-13 18:50:00,
2013-09-13 13:54:00,76.7,52.5,29.74,ESE,113,0.0,12.0,43,0.00,,---,0.00,VWS V14.00,2013-09-13 18:54:00,
2013-09-13 13:55:00,77.7,54.7,29.74,South,176,0.0,12.0,45,0.00,,---,0.00,VWS V14.00,2013-09-13 18:55:00,
2013-09-13 13:56:00,77.7,54.7,29.74,South,176,0.0,12.0,45,0.00,,---,0.00,VWS V14.00,2013-09-13 18:56:00,
2013-09-13 13:59:00,77.9,51.0,29.73,SSE,162,0.0,12.0,39,0.00,,---,0.00,VWS V14.00,2013-09-13 18:59:00,
2013-09-13 14:00:00,77.9,52.3,29.73,ESE,117,0.0,0.0,41,0.00,,---,0.00,VWS V14.00,2013-09-13 19:00:00,
2013-09-13 14:01:00,77.7,51.5,29.73,ESE,117,0.0,0.0,40,0.00,,---,0.00,VWS V14.00,2013-09-13 19:01:00,
2013-09-13 14:02:00,77.6,51.4,29.73,ESE,116,0.0,0.0,40,0.00,,---,0.00,VWS V14.00,2013-09-13 19:02:00,
2013-09-13 14:04:00,76.8,52.0,29.73,ESE,104,0.0,0.0,42,0.00,,---,0.00,VWS V14.00,2013-09-13 19:04:00,
2013-09-13 14:05:00,76.7,51.9,29.73,East,93,0.0,0.0,42,0.00,,---,0.00,VWS V14.00,2013-09-13 19:05:00,
2013-09-13 14:06:00,76.3,52.2,29.73,East,88,0.0,0.0,43,0.00,,---,0.00,VWS V14.00,2013-09-13 19:06:00,
2013-09-13 14:07:00,76.3,52.2,29.73,ENE,68,0.0,0.0,43,0.00,,---,0.00,VWS V14.00,2013-09-13 19:07:00,
2013-09-13 14:08:00,76.3,52.8,29.73,ENE,68,0.0,0.0,44,0.00,,---,0.00,VWS V14.00,2013-09-13 19:08:00,
2013-09-13 14:09:00,76.5,52.4,29.73,East,82,0.0,0.0,43,0.00,,---,0.00,VWS V14.00,2013-09-13 19:09:00,
2013-09-13 14:10:00,76.7,53.2,29.73,East,82,0.0,0.0,44,0.00,,---,0.00,VWS V14.00,2013-09-13 19:10:00,
2013-09-13 14:11:00,77.2,52.4,29.73,SE,126,7.0,8.0,42,0.00,,---,0.00,VWS V14.00,2013-09-13 19:11:00,
2013-09-13 14:12:00,77.6,52.7,29.73,ESE,106,0.0,8.0,42,0.00,,---,0.00,VWS V14.00,2013-09-13 19:12:00,
2013-09-13 14:13:00,78.1,53.8,29.73,ESE,113,8.0,10.0,43,0.00,,---,0.00,VWS V14.00,2013-09-13 19:13:00,
2013-09-13 14:14:00,77.9,52.3,29.73,ESE,102,2.0,11.0,41,0.00,,---,0.00,VWS V14.00,2013-09-13 19:14:00,
2013-09-13 14:15:00,78.1,53.2,29.73,ENE,78,0.0,11.0,42,0.00,,---,0.00,VWS V14.00,2013-09-13 19:15:00,
2013-09-13 14:17:00,78.5,52.9,29.73,ESE,107,5.0,11.0,41,0.00,,---,0.00,VWS V14.00,2013-09-13 19:17:00,
2013-09-13 14:19:00,78.6,53.0,29.73,ESE,113,5.0,11.0,41,0.00,,---,0.00,VWS V14.00,2013-09-13 19:19:00,
2013-09-13 14:20:00,78.5,52.2,29.73,East,92,5.0,11.0,40,0.00,,---,0.00,VWS V14.00,2013-09-13 19:20:00,
2013-09-13 14:22:00,77.6,52.7,29.73,ESE,102,0.0,11.0,42,0.00,,---,0.00,VWS V14.00,2013-09-13 19:22:00,
2013-09-13 14:23:00,77.2,52.4,29.73,ESE,121,0.0,11.0,42,0.00,,---,0.00,VWS V14.00,2013-09-13 19:23:00,
2013-09-13 14:24:00,77.4,52.5,29.73,ESE,104,0.0,11.0,42,0.00,,---,0.00,VWS V14.00,2013-09-13 19:24:00,
2013-09-13 14:25:00,77.6,52.7,29.73,ESE,120,0.0,11.0,42,0.00,,---,0.00,VWS V14.00,2013-09-13 19:25:00,
2013-09-13 14:27:00,78.1,50.5,29.73,SSE,155,0.0,11.0,38,0.00,,---,0.00,VWS V14.00,2013-09-13 19:27:00,
2013-09-13 14:29:00,78.1,50.5,29.73,ESE,112,2.0,11.0,38,0.00,,---,0.00,VWS V14.00,2013-09-13 19:29:00,
2013-09-13 14:30:00,78.5,52.2,29.73,SE,134,2.0,12.0,40,0.00,,---,0.00,VWS V14.00,2013-09-13 19:30:00,
2013-09-13 14:33:00,78.6,51.6,29.73,SE,144,0.0,12.0,39,0.00,,---,0.00,VWS V14.00,2013-09-13 19:33:00,
2013-09-13 14:34:00,78.6,50.9,29.73,SSE,152,0.0,12.0,38,0.00,,---,0.00,VWS V14.00,2013-09-13 19:34:00,
2013-09-13 14:35:00,79.0,51.2,29.73,ESE,117,5.0,12.0,38,0.00,,---,0.00,VWS V14.00,2013-09-13 19:35:00,
2013-09-13 14:38:00,77.6,51.4,29.73,ENE,75,2.0,12.0,40,0.00,,---,0.00,VWS V14.00,2013-09-13 19:38:00,
2013-09-13 14:40:00,77.7,49.4,29.73,ENE,61,0.0,12.0,37,0.00,,---,0.00,VWS V14.00,2013-09-13 19:40:00,
2013-09-13 14:43:00,78.1,50.5,29.73,East,88,0.0,12.0,38,0.00,,---,0.00,VWS V14.00,2013-09-13 19:43:00,
2013-09-13 14:45:00,78.3,50.6,29.72,East,85,0.0,12.0,38,0.00,,---,0.00,VWS V14.00,2013-09-13 19:45:00,
2013-09-13 14:46:00,78.3,49.2,29.72,NE,45,0.0,12.0,36,0.00,,---,0.00,VWS V14.00,2013-09-13 19:46:00,
2013-09-13 14:48:00,78.1,49.0,29.72,NE,41,0.0,12.0,36,0.00,,---,0.00,VWS V14.00,2013-09-13 19:48:00,
2013-09-13 14:50:00,78.1,49.7,29.72,NE,45,0.0,12.0,37,0.00,,---,0.00,VWS V14.00,2013-09-13 19:50:00,
2013-09-13 14:51:00,77.9,49.6,29.72,ESE,120,0.0,12.0,37,0.00,,---,0.00,VWS V14.00,2013-09-13 19:51:00,
2013-09-13 14:54:00,77.6,48.6,29.72,ESE,116,8.0,12.0,36,0.00,,---,0.00,VWS V14.00,2013-09-13 19:54:00,
2013-09-13 14:55:00,78.1,49.0,29.72,East,93,1.0,13.0,36,0.00,,---,0.00,VWS V14.00,2013-09-13 19:55:00,
2013-09-13 14:56:00,78.1,49.0,29.72,ESE,103,2.0,13.0,36,0.00,,---,0.00,VWS V14.00,2013-09-13 19:56:00,
2013-09-13 14:59:00,78.8,48.1,29.72,SSE,152,0.0,13.0,34,0.00,,---,0.00,VWS V14.00,2013-09-13 19:59:00,
2013-09-13 15:01:00,78.5,47.8,29.72,ENE,75,0.0,5.0,34,0.00,,---,0.00,VWS V14.00,2013-09-13 20:01:00,
2013-09-13 15:04:00,78.1,48.2,29.72,NE,40,0.0,7.0,35,0.00,,---,0.00,VWS V14.00,2013-09-13 20:04:00,
2013-09-13 15:06:00,78.3,48.4,29.72,ESE,121,2.0,7.0,35,0.00,,---,0.00,VWS V14.00,2013-09-13 20:06:00,
2013-09-13 15:07:00,78.1,49.0,29.72,East,96,7.0,11.0,36,0.00,,---,0.00,VWS V14.00,2013-09-13 20:07:00,
2013-09-13 15:09:00,78.8,51.1,29.72,NNE,24,0.0,11.0,38,0.00,,---,0.00,VWS V14.00,2013-09-13 20:09:00,
2013-09-13 15:11:00,79.4,50.9,29.72,NNE,27,0.0,11.0,37,0.00,,---,0.00,VWS V14.00,2013-09-13 20:11:00,
2013-09-13 15:13:00,79.6,51.8,29.72,ENE,66,0.0,11.0,38,0.00,,---,0.00,VWS V14.00,2013-09-13 20:13:00,
2013-09-13 15:14:00,79.8,49.7,29.71,NE,38,0.0,11.0,35,0.00,,---,0.00,VWS V14.00,2013-09-13 20:14:00,
2013-09-13 15:16:00,80.3,51.7,29.71,NE,42,0.0,11.0,37,0.00,,---,0.00,VWS V14.00,2013-09-13 20:16:00,
2013-09-13 15:18:00,80.1,51.5,29.71,ESE,103,0.0,11.0,37,0.00,,---,0.00,VWS V14.00,2013-09-13 20:18:00,
2013-09-13 15:19:00,79.9,51.3,29.71,ESE,120,0.0,11.0,37,0.00,,---,0.00,VWS V14.00,2013-09-13 20:19:00,
2013-09-13 15:21:00,79.6,51.1,29.71,East,86,1.0,11.0,37,0.00,,---,0.00,VWS V14.00,2013-09-13 20:21:00,
2013-09-13 15:23:00,78.8,50.4,29.71,East,88,6.0,11.0,37,0.00,,---,0.00,VWS V14.00,2013-09-13 20:23:00,
2013-09-13 15:25:00,77.7,50.1,29.71,ESE,107,5.0,11.0,38,0.00,,---,0.00,VWS V14.00,2013-09-13 20:25:00,
2013-09-13 15:26:00,77.4,51.2,29.71,East,89,0.0,11.0,40,0.00,,---,0.00,VWS V14.00,2013-09-13 20:26:00,
2013-09-13 15:27:00,77.4,51.2,29.71,ENE,65,0.0,11.0,40,0.00,,---,0.00,VWS V14.00,2013-09-13 20:27:00,
2013-09-13 15:28:00,77.4,51.9,29.71,ENE,65,0.0,11.0,41,0.00,,---,0.00,VWS V14.00,2013-09-13 20:28:00,
2013-09-13 15:32:00,76.8,50.7,29.71,ENE,58,0.0,6.0,40,0.00,,---,0.00,VWS V14.00,2013-09-13 20:32:00,
2013-09-13 15:33:00,76.7,50.6,29.71,East,79,0.0,6.0,40,0.00,,---,0.00,VWS V14.00,2013-09-13 20:33:00,
2013-09-13 15:34:00,76.7,50.6,29.71,NE,40,0.0,6.0,40,0.00,,---,0.00,VWS V14.00,2013-09-13 20:34:00,
2013-09-13 15:39:00,76.3,50.2,29.71,ESE,109,0.0,6.0,40,0.00,,---,0.00,VWS V14.00,2013-09-13 20:39:00,
2013-09-13 15:40:00,76.3,50.2,29.71,ESE,120,0.0,6.0,40,0.00,,---,0.00,VWS V14.00,2013-09-13 20:40:00,
2013-09-13 15:41:00,77.2,51.0,29.71,East,95,0.0,6.0,40,0.00,,---,0.00,VWS V14.00,2013-09-13 20:41:00,
2013-09-13 15:42:00,77.4,51.2,29.71,East,79,0.0,6.0,40,0.00,,---,0.00,VWS V14.00,2013-09-13 20:42:00,
2013-09-13 15:43:00,77.4,51.2,29.71,East,90,0.0,6.0,40,0.00,,---,0.00,VWS V14.00,2013-09-13 20:43:00,
2013-09-13 15:44:00,77.7,49.4,29.71,ENE,61,0.0,6.0,37,0.00,,---,0.00,VWS V14.00,2013-09-13 20:44:00,
2013-09-13 15:45:00,78.3,52.0,29.71,ENE,78,0.0,6.0,40,0.00,,---,0.00,VWS V14.00,2013-09-13 20:45:00,
2013-09-13 15:48:00,77.6,50.7,29.71,East,89,5.0,12.0,39,0.00,,---,0.00,VWS V14.00,2013-09-13 20:48:00,
2013-09-13 15:50:00,77.0,49.5,29.71,East,95,0.0,0.0,38,0.00,,---,0.00,VWS V14.00,2013-09-13 20:50:00,
2013-09-13 15:51:00,77.0,50.2,29.71,East,86,0.0,0.0,39,0.00,,---,0.00,VWS V14.00,2013-09-13 20:51:00,
2013-09-13 15:52:00,77.2,50.3,29.71,East,95,0.0,0.0,39,0.00,,---,0.00,VWS V14.00,2013-09-13 20:52:00,
2013-09-13 15:54:00,77.2,49.7,29.71,East,100,0.0,7.0,38,0.00,,---,0.00,VWS V14.00,2013-09-13 20:54:00,
2013-09-13 15:55:00,77.4,50.5,29.71,East,95,0.0,7.0,39,0.00,,---,0.00,VWS V14.00,2013-09-13 20:55:00,
2013-09-13 15:59:00,78.6,50.2,29.69,ESE,117,0.0,10.0,37,0.00,,---,0.00,VWS V14.00,2013-09-13 20:59:00,
2013-09-13 16:03:00,79.6,51.1,29.69,East,93,2.0,7.0,37,0.00,,---,0.00,VWS V14.00,2013-09-13 21:03:00,
2013-09-13 16:05:00,80.3,51.7,29.69,ESE,110,7.0,7.0,37,0.00,,---,0.00,VWS V14.00,2013-09-13 21:05:00,
2013-09-13 16:09:00,80.7,49.8,29.69,East,79,0.0,11.0,34,0.00,,---,0.00,VWS V14.00,2013-09-13 21:09:00,
2013-09-13 16:10:00,80.7,50.5,29.69,East,92,7.0,11.0,35,0.00,,---,0.00,VWS V14.00,2013-09-13 21:10:00,
2013-09-13 16:11:00,80.5,50.4,29.69,ESE,104,6.0,11.0,35,0.00,,---,0.00,VWS V14.00,2013-09-13 21:11:00,
2013-09-13 16:14:00,80.1,50.8,29.68,NNE,31,0.0,11.0,36,0.00,,---,0.00,VWS V14.00,2013-09-13 21:14:00,
2013-09-13 16:15:00,79.9,49.0,29.68,NNE,31,0.0,11.0,34,0.00,,---,0.00,VWS V14.00,2013-09-13 21:15:00,
2013-09-13 16:16:00,79.8,49.0,29.68,NNE,32,0.0,11.0,34,0.00,,---,0.00,VWS V14.00,2013-09-13 21:16:00,
2013-09-13 16:20:00,80.3,50.9,29.68,ENE,62,0.0,11.0,36,0.00,,---,0.00,VWS V14.00,2013-09-13 21:20:00,
2013-09-13 16:21:00,80.3,49.4,29.68,ENE,75,0.0,11.0,34,0.00,,---,0.00,VWS V14.00,2013-09-13 21:21:00,
2013-09-13 16:24:00,80.9,49.9,29.68,ENE,68,0.0,11.0,34,0.00,,---,0.00,VWS V14.00,2013-09-13 21:24:00,
2013-09-13 16:25:00,81.2,50.2,29.68,ENE,68,0.0,11.0,34,0.00,,---,0.00,VWS V14.00,2013-09-13 21:25:00,
2013-09-13 16:26:00,80.9,51.5,29.68,ESE,107,0.0,11.0,36,0.00,,---,0.00,VWS V14.00,2013-09-13 21:26:00,
2013-09-13 16:27:00,80.7,48.1,29.68,East,97,7.0,11.0,32,0.00,,---,0.00,VWS V14.00,2013-09-13 21:27:00,
2013-09-13 16:34:00,80.3,48.6,29.68,ENE,62,0.0,5.0,33,0.00,,---,0.00,VWS V14.00,2013-09-13 21:34:00,
2013-09-13 16:39:00,80.9,50.7,29.68,ESE,112,0.0,6.0,35,0.00,,---,0.00,VWS V14.00,2013-09-13 21:39:00,
2013-09-13 16:40:00,80.9,49.9,29.68,SE,138,8.0,8.0,34,0.00,,---,0.00,VWS V14.00,2013-09-13 21:40:00,
2013-09-13 16:46:00,80.5,51.9,29.67,ESE,110,0.0,16.0,37,0.00,,---,0.00,VWS V14.00,2013-09-13 21:46:00,
2013-09-13 16:47:00,80.7,52.0,29.67,SE,130,0.0,16.0,37,0.00,,---,0.00,VWS V14.00,2013-09-13 21:47:00,
2013-09-13 16:48:00,80.5,49.6,29.67,SSE,155,2.0,16.0,34,0.00,,---,0.00,VWS V14.00,2013-09-13 21:48:00,
2013-09-13 16:51:00,79.9,52.0,29.67,SE,128,2.0,16.0,38,0.00,,---,0.00,VWS V14.00,2013-09-13 21:51:00,
2013-09-13 16:52:00,80.1,52.2,29.67,NE,52,0.0,16.0,38,0.00,,---,0.00,VWS V14.00,2013-09-13 21:52:00,
2013-09-13 16:53:00,80.5,51.1,29.67,East,93,0.0,16.0,36,0.00,,---,0.00,VWS V14.00,2013-09-13 21:53:00,
2013-09-13 16:57:00,80.5,50.4,29.67,ESE,107,10.0,16.0,35,0.00,,---,0.00,VWS V14.00,2013-09-13 21:57:00,
2013-09-13 16:58:00,80.3,50.2,29.67,ENE,66,0.0,16.0,35,0.00,,---,0.00,VWS V14.00,2013-09-13 21:58:00,
2013-09-13 16:59:00,79.6,49.6,29.67,ESE,114,0.0,16.0,35,0.00,,---,0.00,VWS V14.00,2013-09-13 21:59:00,
2013-09-13 17:02:00,79.0,50.5,29.67,ESE,103,0.0,11.0,37,0.00,,---,0.00,VWS V14.00,2013-09-13 22:02:00,
2013-09-13 17:03:00,78.8,50.4,29.67,East,89,0.0,11.0,37,0.00,,---,0.00,VWS V14.00,2013-09-13 22:03:00,
2013-09-13 17:04:00,78.8,50.4,29.67,East,96,0.0,11.0,37,0.00,,---,0.00,VWS V14.00,2013-09-13 22:04:00,
2013-09-13 17:05:00,78.5,50.1,29.67,East,95,0.0,11.0,37,0.00,,---,0.00,VWS V14.00,2013-09-13 22:05:00,
2013-09-13 17:08:00,78.5,49.3,29.67,ESE,119,0.0,11.0,36,0.00,,---,0.00,VWS V14.00,2013-09-13 22:08:00,
2013-09-13 17:09:00,78.5,49.3,29.67,ESE,123,0.0,11.0,36,0.00,,---,0.00,VWS V14.00,2013-09-13 22:09:00,
2013-09-13 17:10:00,78.5,50.1,29.67,East,86,0.0,11.0,37,0.00,,---,0.00,VWS V14.00,2013-09-13 22:10:00,
2013-09-13 17:14:00,79.6,50.3,29.68,East,96,2.0,11.0,36,0.00,,---,0.00,VWS V14.00,2013-09-13 22:14:00,
2013-09-13 17:15:00,79.6,50.3,29.68,East,93,0.0,11.0,36,0.00,,---,0.00,VWS V14.00,2013-09-13 22:15:00,
2013-09-13 17:16:00,79.9,50.6,29.68,East,80,0.0,11.0,36,0.00,,---,0.00,VWS V14.00,2013-09-13 22:16:00,
2013-09-13 17:20:00,79.8,50.5,29.68,ESE,102,1.0,11.0,36,0.00,,---,0.00,VWS V14.00,2013-09-13 22:20:00,
2013-09-13 17:21:00,79.6,49.6,29.68,SE,140,0.0,11.0,35,0.00,,---,0.00,VWS V14.00,2013-09-13 22:21:00,
2013-09-13 17:22:00,79.6,49.6,29.68,SE,137,0.0,11.0,35,0.00,,---,0.00,VWS V14.00,2013-09-13 22:22:00,
2013-09-13 17:26:00,79.9,51.3,29.68,East,80,0.0,11.0,37,0.00,,---,0.00,VWS V14.00,2013-09-13 22:26:00,
2013-09-13 17:27:00,79.9,50.6,29.68,ESE,113,0.0,11.0,36,0.00,,---,0.00,VWS V14.00,2013-09-13 22:27:00,
2013-09-13 17:29:00,79.9,50.6,29.67,East,95,5.0,11.0,36,0.00,,---,0.00,VWS V14.00,2013-09-13 22:29:00,
2013-09-13 17:30:00,79.9,50.6,29.67,East,90,8.0,11.0,36,0.00,,---,0.00,VWS V14.00,2013-09-13 22:30:00,
2013-09-13 17:31:00,79.6,50.3,29.67,East,96,0.0,8.0,36,0.00,,---,0.00,VWS V14.00,2013-09-13 22:31:00,
2013-09-13 17:32:00,79.9,51.3,29.67,NNE,32,0.0,10.0,37,0.00,,---,0.00,VWS V14.00,2013-09-13 22:32:00,
2013-09-13 17:33:00,79.9,49.8,29.67,ENE,78,3.0,11.0,35,0.00,,---,0.00,VWS V14.00,2013-09-13 22:33:00,
2013-09-13 17:34:00,80.1,50.0,29.67,East,86,0.0,11.0,35,0.00,,---,0.00,VWS V14.00,2013-09-13 22:34:00,
2013-09-13 17:35:00,80.1,51.5,29.67,East,85,0.0,11.0,37,0.00,,---,0.00,VWS V14.00,2013-09-13 22:35:00,
2013-09-13 17:36:00,79.9,49.8,29.67,East,86,0.0,11.0,35,0.00,,---,0.00,VWS V14.00,2013-09-13 22:36:00,
2013-09-13 17:39:00,79.9,49.8,29.67,East,97,8.0,11.0,35,0.00,,---,0.00,VWS V14.00,2013-09-13 22:39:00,
2013-09-13 17:41:00,80.1,49.2,29.67,East,82,2.0,11.0,34,0.00,,---,0.00,VWS V14.00,2013-09-13 22:41:00,
2013-09-13 17:43:00,80.1,49.2,29.67,East,89,6.0,11.0,34,0.00,,---,0.00,VWS V14.00,2013-09-13 22:43:00,
2013-09-13 17:45:00,79.9,49.0,29.67,NE,35,0.0,11.0,34,0.00,,---,0.00,VWS V14.00,2013-09-13 22:45:00,
2013-09-13 17:47:00,79.9,49.0,29.67,East,99,0.0,11.0,34,0.00,,---,0.00,VWS V14.00,2013-09-13 22:47:00,
2013-09-13 17:49:00,79.8,49.0,29.67,East,82,7.0,11.0,34,0.00,,---,0.00,VWS V14.00,2013-09-13 22:49:00,
2013-09-13 17:50:00,79.6,50.3,29.67,NE,45,0.0,12.0,36,0.00,,---,0.00,VWS V14.00,2013-09-13 22:50:00,
2013-09-13 17:51:00,79.6,50.3,29.67,ENE,59,0.0,12.0,36,0.00,,---,0.00,VWS V14.00,2013-09-13 22:51:00,
2013-09-13 17:54:00,79.6,49.6,29.67,ESE,106,5.0,12.0,35,0.00,,---,0.00,VWS V14.00,2013-09-13 22:54:00,
2013-09-13 17:56:00,79.4,48.6,29.67,ESE,106,0.0,12.0,34,0.00,,---,0.00,VWS V14.00,2013-09-13 22:56:00,
2013-09-13 17:58:00,79.9,49.8,29.67,ESE,106,6.0,12.0,35,0.00,,---,0.00,VWS V14.00,2013-09-13 22:58:00,
2013-09-13 18:01:00,79.6,50.3,29.67,ESE,113,9.0,9.0,36,0.00,,---,0.00,VWS V14.00,2013-09-13 23:01:00,
2013-09-13 18:06:00,79.2,50.0,29.67,ENE,69,5.0,6.0,36,0.00,,---,0.00,VWS V14.00,2013-09-13 23:06:00,
2013-09-13 18:07:00,79.0,50.5,29.67,ENE,75,0.0,6.0,37,0.00,,---,0.00,VWS V14.00,2013-09-13 23:07:00,
2013-09-13 18:08:00,79.0,50.5,29.67,East,97,0.0,6.0,37,0.00,,---,0.00,VWS V14.00,2013-09-13 23:08:00,
2013-09-13 18:13:00,79.0,49.8,29.67,SE,130,8.0,10.0,36,0.00,,---,0.00,VWS V14.00,2013-09-13 23:13:00,
2013-09-13 18:14:00,78.8,49.6,29.67,ESE,113,0.0,10.0,36,0.00,,---,0.00,VWS V14.00,2013-09-13 23:14:00,
2013-09-13 18:15:00,78.6,49.4,29.68,ESE,103,7.0,10.0,36,0.00,,---,0.00,VWS V14.00,2013-09-13 23:15:00,
2013-09-13 18:35:00,77.2,48.2,29.69,East,95,3.0,3.0,36,0.00,,---,0.00,VWS V14.00,2013-09-13 23:35:00,
2013-09-13 18:36:00,77.2,49.7,29.69,East,99,0.0,3.0,38,0.00,,---,0.00,VWS V14.00,2013-09-13 23:36:00,
2013-09-13 18:40:00,77.4,49.8,29.69,East,97,0.0,11.0,38,0.00,,---,0.00,VWS V14.00,2013-09-13 23:40:00,
2013-09-13 18:44:00,77.4,50.5,29.69,East,79,0.0,11.0,39,0.00,,---,0.00,VWS V14.00,2013-09-13 23:44:00,
2013-09-13 18:45:00,77.2,50.3,29.69,East,97,0.0,11.0,39,0.00,,---,0.00,VWS V14.00,2013-09-13 23:45:00,
2013-09-13 18:49:00,77.2,49.7,29.69,ESE,104,0.0,11.0,38,0.00,,---,0.00,VWS V14.00,2013-09-13 23:49:00,
2013-09-13 18:50:00,77.2,50.3,29.69,East,82,0.0,11.0,39,0.00,,---,0.00,VWS V14.00,2013-09-13 23:50:00,
2013-09-13 18:51:00,77.2,50.3,29.69,East,83,0.0,11.0,39,0.00,,---,0.00,VWS V14.00,2013-09-13 23:51:00,
2013-09-13 18:53:00,77.0,50.2,29.69,East,96,5.0,11.0,39,0.00,,---,0.00,VWS V14.00,2013-09-13 23:53:00,
2013-09-13 18:54:00,77.0,50.2,29.69,East,83,0.0,11.0,39,0.00,,---,0.00,VWS V14.00,2013-09-13 23:54:00,
2013-09-13 18:56:00,77.0,50.2,29.69,ENE,66,3.0,11.0,39,0.00,,---,0.00,VWS V14.00,2013-09-13 23:56:00,
2013-09-13 18:57:00,77.0,50.2,29.69,ESE,103,0.0,11.0,39,0.00,,---,0.00,VWS V14.00,2013-09-13 23:57:00,
2013-09-13 19:03:00,76.1,49.4,29.69,ENE,75,5.0,7.0,39,0.00,,---,0.00,VWS V14.00,2013-09-14 00:03:00,
2013-09-13 19:04:00,76.1,49.4,29.69,East,97,0.0,7.0,39,0.00,,---,0.00,VWS V14.00,2013-09-14 00:04:00,
2013-09-13 19:05:00,76.0,49.3,29.69,East,89,0.0,7.0,39,0.00,,---,0.00,VWS V14.00,2013-09-14 00:05:00,
2013-09-13 19:07:00,75.6,50.3,29.69,East,79,0.0,7.0,41,0.00,,---,0.00,VWS V14.00,2013-09-14 00:07:00,
2013-09-13 19:09:00,75.6,49.6,29.69,East,82,0.0,7.0,40,0.00,,---,0.00,VWS V14.00,2013-09-14 00:09:00,
2013-09-13 19:10:00,75.4,49.4,29.69,ESE,102,0.0,7.0,40,0.00,,---,0.00,VWS V14.00,2013-09-14 00:10:00,
2013-09-13 19:15:00,75.4,49.4,29.70,East,83,0.0,7.0,40,0.00,,---,0.00,VWS V14.00,2013-09-14 00:15:00,
2013-09-13 19:16:00,75.4,49.4,29.70,East,88,0.0,7.0,40,0.00,,---,0.00,VWS V14.00,2013-09-14 00:16:00,
2013-09-13 19:17:00,75.4,48.8,29.70,East,86,0.0,7.0,39,0.00,,---,0.00,VWS V14.00,2013-09-14 00:17:00,
2013-09-13 19:21:00,75.4,49.4,29.70,East,100,0.0,7.0,40,0.00,,---,0.00,VWS V14.00,2013-09-14 00:21:00,
2013-09-13 19:23:00,75.3,50.0,29.70,East,79,0.0,7.0,41,0.00,,---,0.00,VWS V14.00,2013-09-14 00:23:00,
2013-09-13 19:25:00,75.3,50.0,29.70,ESE,109,0.0,7.0,41,0.00,,---,0.00,VWS V14.00,2013-09-14 00:25:00,
2013-09-13 19:26:00,75.3,50.0,29.70,East,93,0.0,7.0,41,0.00,,---,0.00,VWS V14.00,2013-09-14 00:26:00,
2013-09-13 19:27:00,75.3,50.0,29.70,ENE,73,0.0,7.0,41,0.00,,---,0.00,VWS V14.00,2013-09-14 00:27:00,
2013-09-13 19:28:00,75.1,49.2,29.70,ENE,72,0.0,7.0,40,0.00,,---,0.00,VWS V14.00,2013-09-14 00:28:00,
2013-09-13 19:30:00,75.1,49.2,29.70,East,83,0.0,0.0,40,0.00,,---,0.00,VWS V14.00,2013-09-14 00:30:00,
2013-09-13 19:32:00,74.9,49.0,29.70,ENE,78,0.0,0.0,40,0.00,,---,0.00,VWS V14.00,2013-09-14 00:32:00,
2013-09-13 19:34:00,74.9,49.6,29.70,East,88,0.0,0.0,41,0.00,,---,0.00,VWS V14.00,2013-09-14 00:34:00,
2013-09-13 19:35:00,74.9,49.6,29.70,East,89,0.0,0.0,41,0.00,,---,0.00,VWS V14.00,2013-09-14 00:35:00,
2013-09-13 19:37:00,74.6,49.4,29.70,ESE,106,0.0,0.0,41,0.00,,---,0.00,VWS V14.00,2013-09-14 00:37:00,
2013-09-13 19:38:00,74.6,49.4,29.70,ESE,107,0.0,0.0,41,0.00,,---,0.00,VWS V14.00,2013-09-14 00:38:00,
2013-09-13 19:39:00,74.6,49.4,29.70,ESE,107,0.0,0.0,41,0.00,,---,0.00,VWS V14.00,2013-09-14 00:39:00,
2013-09-13 19:41:00,74.4,49.8,29.70,ESE,110,0.0,0.0,42,0.00,,---,0.00,VWS V14.00,2013-09-14 00:41:00,
2013-09-13 19:44:00,74.0,49.5,29.71,ESE,107,0.0,0.0,42,0.00,,---,0.00,VWS V14.00,2013-09-14 00:44:00,
2013-09-13 19:45:00,74.0,49.5,29.71,ESE,107,0.0,0.0,42,0.00,,---,0.00,VWS V14.00,2013-09-14 00:45:00,
2013-09-13 19:46:00,74.0,49.5,29.71,ESE,107,0.0,0.0,42,0.00,,---,0.00,VWS V14.00,2013-09-14 00:46:00,
2013-09-13 19:47:00,73.7,49.2,29.71,ESE,107,0.0,0.0,42,0.00,,---,0.00,VWS V14.00,2013-09-14 00:47:00,
2013-09-13 19:50:00,73.5,49.7,29.71,ESE,106,0.0,0.0,43,0.00,,---,0.00,VWS V14.00,2013-09-14 00:50:00,
2013-09-13 19:51:00,73.3,49.5,29.71,ESE,106,0.0,0.0,43,0.00,,---,0.00,VWS V14.00,2013-09-14 00:51:00,
2013-09-13 19:56:00,73.0,50.4,29.71,ESE,104,0.0,0.0,45,0.00,,---,0.00,VWS V14.00,2013-09-14 00:56:00,
2013-09-13 19:58:00,72.8,49.6,29.71,ESE,103,0.0,0.0,44,0.00,,---,0.00,VWS V14.00,2013-09-14 00:58:00,
2013-09-13 20:01:00,72.8,49.6,29.72,East,83,0.0,0.0,44,0.00,,---,0.00,VWS V14.00,2013-09-14 01:01:00,
2013-09-13 20:02:00,72.8,49.6,29.72,East,83,0.0,0.0,44,0.00,,---,0.00,VWS V14.00,2013-09-14 01:02:00,
2013-09-13 20:03:00,72.7,50.2,29.72,ENE,73,0.0,0.0,45,0.00,,---,0.00,VWS V14.00,2013-09-14 01:03:00,
2013-09-13 20:04:00,72.8,50.2,29.72,East,97,0.0,0.0,45,0.00,,---,0.00,VWS V14.00,2013-09-14 01:04:00,
2013-09-13 20:05:00,72.8,50.2,29.72,East,88,0.0,0.0,45,0.00,,---,0.00,VWS V14.00,2013-09-14 01:05:00,
2013-09-13 20:06:00,72.8,50.2,29.72,East,88,0.0,0.0,45,0.00,,---,0.00,VWS V14.00,2013-09-14 01:06:00,
2013-09-13 20:07:00,72.8,50.2,29.72,East,88,0.0,0.0,45,0.00,,---,0.00,VWS V14.00,2013-09-14 01:07:00,
2013-09-13 20:10:00,72.7,50.2,29.72,East,89,0.0,0.0,45,0.00,,---,0.00,VWS V14.00,2013-09-14 01:10:00,
2013-09-13 20:12:00,72.7,50.2,29.72,East,82,0.0,0.0,45,0.00,,---,0.00,VWS V14.00,2013-09-14 01:12:00,
2013-09-13 20:13:00,72.7,50.2,29.72,East,95,0.0,0.0,45,0.00,,---,0.00,VWS V14.00,2013-09-14 01:13:00,
2013-09-13 20:15:00,72.7,50.2,29.68,East,82,0.0,0.0,45,0.00,,---,0.00,VWS V14.00,2013-09-14 01:15:00,
2013-09-13 20:16:00,72.8,50.2,29.68,East,97,0.0,0.0,45,0.00,,---,0.00,VWS V14.00,2013-09-14 01:16:00,
2013-09-13 20:19:00,72.7,50.2,29.68,East,92,0.0,0.0,45,0.00,,---,0.00,VWS V14.00,2013-09-14 01:19:00,
2013-09-13 20:20:00,72.8,50.2,29.68,East,86,0.0,0.0,45,0.00,,---,0.00,VWS V14.00,2013-09-14 01:20:00,
2013-09-13 20:21:00,72.8,50.2,29.68,East,82,0.0,0.0,45,0.00,,---,0.00,VWS V14.00,2013-09-14 01:21:00,
2013-09-13 20:22:00,72.8,50.2,29.68,East,86,0.0,0.0,45,0.00,,---,0.00,VWS V14.00,2013-09-14 01:22:00,
2013-09-13 20:25:00,72.7,50.2,29.68,East,89,0.0,0.0,45,0.00,,---,0.00,VWS V14.00,2013-09-14 01:25:00,
2013-09-13 20:28:00,72.8,50.2,29.68,East,92,0.0,0.0,45,0.00,,---,0.00,VWS V14.00,2013-09-14 01:28:00,
2013-09-13 20:29:00,72.7,50.2,29.68,East,99,0.0,0.0,45,0.00,,---,0.00,VWS V14.00,2013-09-14 01:29:00,
2013-09-13 20:31:00,72.7,50.2,29.68,East,97,0.0,0.0,45,0.00,,---,0.00,VWS V14.00,2013-09-14 01:31:00,
2013-09-13 20:32:00,72.3,50.4,29.68,East,97,0.0,0.0,46,0.00,,---,0.00,VWS V14.00,2013-09-14 01:32:00,
2013-09-13 20:33:00,72.3,50.4,29.68,East,97,0.0,0.0,46,0.00,,---,0.00,VWS V14.00,2013-09-14 01:33:00,
2013-09-13 20:35:00,72.0,50.1,29.68,East,96,0.0,0.0,46,0.00,,---,0.00,VWS V14.00,2013-09-14 01:35:00,
2013-09-13 20:37:00,71.8,49.9,29.68,East,89,0.0,0.0,46,0.00,,---,0.00,VWS V14.00,2013-09-14 01:37:00,
2013-09-13 20:39:00,71.8,49.9,29.68,East,86,0.0,0.0,46,0.00,,---,0.00,VWS V14.00,2013-09-14 01:39:00,
2013-09-13 20:40:00,71.8,49.9,29.68,East,88,0.0,0.0,46,0.00,,---,0.00,VWS V14.00,2013-09-14 01:40:00,
2013-09-13 20:42:00,71.8,49.9,29.68,East,90,0.0,0.0,46,0.00,,---,0.00,VWS V14.00,2013-09-14 01:42:00,
2013-09-13 20:44:00,71.6,49.8,29.69,East,89,0.0,0.0,46,0.00,,---,0.00,VWS V14.00,2013-09-14 01:44:00,
2013-09-13 20:45:00,71.5,49.7,29.69,East,89,0.0,0.0,46,0.00,,---,0.00,VWS V14.00,2013-09-14 01:45:00,
2013-09-13 20:47:00,71.3,49.5,29.69,East,86,0.0,0.0,46,0.00,,---,0.00,VWS V14.00,2013-09-14 01:47:00,
2013-09-13 20:48:00,71.3,49.5,29.69,East,83,0.0,0.0,46,0.00,,---,0.00,VWS V14.00,2013-09-14 01:48:00,
2013-09-13 20:49:00,71.3,49.5,29.69,East,85,0.0,0.0,46,0.00,,---,0.00,VWS V14.00,2013-09-14 01:49:00,
2013-09-13 20:50:00,71.3,49.5,29.69,East,83,0.0,0.0,46,0.00,,---,0.00,VWS V14.00,2013-09-14 01:50:00,
2013-09-13 20:54:00,70.9,49.7,29.69,East,90,0.0,0.0,47,0.00,,---,0.00,VWS V14.00,2013-09-14 01:54:00,
2013-09-13 20:55:00,70.9,49.7,29.69,ENE,68,0.0,0.0,47,0.00,,---,0.00,VWS V14.00,2013-09-14 01:55:00,
2013-09-13 20:56:00,70.9,49.7,29.69,ENE,68,0.0,0.0,47,0.00,,---,0.00,VWS V14.00,2013-09-14 01:56:00,
2013-09-13 20:57:00,70.8,49.6,29.69,ENE,72,0.0,0.0,47,0.00,,---,0.00,VWS V14.00,2013-09-14 01:57:00,
2013-09-13 20:59:00,70.6,49.4,29.70,East,90,0.0,0.0,47,0.00,,---,0.00,VWS V14.00,2013-09-14 01:59:00,
2013-09-13 21:01:00,70.6,50.0,29.70,East,90,0.0,0.0,48,0.00,,---,0.00,VWS V14.00,2013-09-14 02:01:00,
2013-09-13 21:07:00,70.3,50.3,29.70,East,92,0.0,0.0,49,0.00,,---,0.00,VWS V14.00,2013-09-14 02:07:00,
2013-09-13 21:08:00,70.3,50.3,29.70,East,92,0.0,0.0,49,0.00,,---,0.00,VWS V14.00,2013-09-14 02:08:00,
2013-09-13 21:09:00,70.1,50.1,29.70,East,92,0.0,0.0,49,0.00,,---,0.00,VWS V14.00,2013-09-14 02:09:00,
2013-09-13 21:12:00,70.1,50.1,29.70,East,92,0.0,0.0,49,0.00,,---,0.00,VWS V14.00,2013-09-14 02:12:00,
2013-09-13 21:14:00,69.9,50.4,29.67,East,92,0.0,0.0,50,0.00,,---,0.00,VWS V14.00,2013-09-14 02:14:00,
2013-09-13 21:15:00,69.8,50.3,29.67,East,92,0.0,0.0,50,0.00,,---,0.00,VWS V14.00,2013-09-14 02:15:00,
2013-09-13 21:17:00,69.6,50.2,29.67,East,92,0.0,0.0,50,0.00,,---,0.00,VWS V14.00,2013-09-14 02:17:00,
2013-09-13 21:18:00,69.6,50.2,29.67,East,92,0.0,0.0,50,0.00,,---,0.00,VWS V14.00,2013-09-14 02:18:00,
2013-09-13 21:19:00,69.4,50.0,29.67,East,92,0.0,0.0,50,0.00,,---,0.00,VWS V14.00,2013-09-14 02:19:00,
2013-09-13 21:20:00,69.4,50.0,29.67,East,92,0.0,0.0,50,0.00,,---,0.00,VWS V14.00,2013-09-14 02:20:00,
2013-09-13 21:26:00,69.3,50.4,29.67,East,90,0.0,0.0,51,0.00,,---,0.00,VWS V14.00,2013-09-14 02:26:00,
2013-09-13 21:28:00,69.4,50.0,29.67,East,79,0.0,0.0,50,0.00,,---,0.00,VWS V14.00,2013-09-14 02:28:00,